Time,TemperatureF,DewpointF,PressureIn,WindDirection,WindDirectionDegrees,WindSpeedMPH,WindSpeedGustMPH,Humidity,HourlyPrecipIn,Conditions,Clouds,dailyrainin,SoftwareType,DateUTC
2013-07-11 00:01:00,67.2,57.2,30.10,NE,45,0.0,0.0,70,0.00,,,0.00,WUHU216HW,2013-07-11 04:01:00,
2013-07-11 00:06:00,66.9,56.8,30.10,NE,45,0.0,0.0,70,0.00,,,0.00,WUHU216HW,2013-07-11 04:06:00,
2013-07-11 00:11:00,66.7,56.6,30.10,NE,45,0.0,0.0,70,0.00,,,0.00,WUHU216HW,2013-07-11 04:11:00,
2013-07-11 00:16:00,66.3,56.6,30.10,NE,45,0.0,0.0,71,0.00,,,0.00,WUHU216HW,2013-07-11 04:16:00,
2013-07-11 00:21:00,66.0,56.6,30.10,NE,45,0.0,0.0,72,0.00,,,0.00,WUHU216HW,2013-07-11 04:21:00,
2013-07-11 00:26:00,65.8,56.9,30.10,NE,45,0.0,0.0,73,0.00,,,0.00,WUHU216HW,2013-07-11 04:26:00,
2013-07-11 00:31:00,65.3,56.7,30.10,NE,45,0.0,0.0,74,0.00,,,0.00,WUHU216HW,2013-07-11 04:31:00,
2013-07-11 00:36:00,65.1,56.6,30.10,NE,45,0.0,0.0,74,0.00,,,0.00,WUHU216HW,2013-07-11 04:36:00,
2013-07-11 00:41:00,64.9,56.4,30.10,NE,45,0.0,0.0,74,0.00,,,0.00,WUHU216HW,2013-07-11 04:41:00,
2013-07-11 00:46:00,65.1,56.9,30.10,NE,45,0.0,0.0,75,0.00,,,0.00,WUHU216HW,2013-07-11 04:46:00,
2013-07-11 00:51:00,64.9,56.8,30.10,NE,45,0.0,0.0,75,0.00,,,0.00,WUHU216HW,2013-07-11 04:51:00,
2013-07-11 00:56:00,64.9,56.8,30.10,NE,45,0.0,0.0,75,0.00,,,0.00,WUHU216HW,2013-07-11 04:56:00,
2013-07-11 01:01:00,64.7,56.6,30.11,NE,45,0.0,0.0,75,0.00,,,0.00,WUHU216HW,2013-07-11 05:01:00,
2013-07-11 01:06:00,64.2,56.4,30.11,NE,45,0.0,0.0,76,0.00,,,0.00,WUHU216HW,2013-07-11 05:06:00,
2013-07-11 01:11:00,64.0,56.6,30.10,SE,135,0.0,0.0,77,0.00,,,0.00,WUHU216HW,2013-07-11 05:11:00,
2013-07-11 01:16:00,63.3,56.3,30.10,SE,135,0.0,0.0,78,0.00,,,0.00,WUHU216HW,2013-07-11 05:16:00,
2013-07-11 01:21:00,63.1,56.1,30.10,SE,135,0.0,0.0,78,0.00,,,0.00,WUHU216HW,2013-07-11 05:21:00,
2013-07-11 01:26:00,62.9,55.9,30.11,SE,135,0.0,0.0,78,0.00,,,0.00,WUHU216HW,2013-07-11 05:26:00,
2013-07-11 01:31:00,62.7,56.1,30.10,SE,135,0.0,0.0,79,0.00,,,0.00,WUHU216HW,2013-07-11 05:31:00,
2013-07-11 01:36:00,62.7,56.1,30.10,SE,135,0.0,0.0,79,0.00,,,0.00,WUHU216HW,2013-07-11 05:36:00,
2013-07-11 01:41:00,62.7,56.1,30.10,SE,135,0.0,0.0,79,0.00,,,0.00,WUHU216HW,2013-07-11 05:41:00,
2013-07-11 01:46:00,62.7,56.1,30.10,SE,135,0.0,0.0,79,0.00,,,0.00,WUHU216HW,2013-07-11 05:46:00,
2013-07-11 01:51:00,62.7,56.1,30.11,SE,135,0.0,0.0,79,0.00,,,0.00,WUHU216HW,2013-07-11 05:51:00,
2013-07-11 01:56:00,62.7,56.1,30.10,SE,135,0.0,0.0,79,0.00,,,0.00,WUHU216HW,2013-07-11 05:56:00,
2013-07-11 02:01:00,62.6,55.9,30.10,SE,135,0.0,0.0,79,0.00,,,0.00,WUHU216HW,2013-07-11 06:01:00,
2013-07-11 02:06:00,62.4,55.7,30.10,SE,135,0.0,0.0,79,0.00,,,0.00,WUHU216HW,2013-07-11 06:06:00,
2013-07-11 02:11:00,62.4,56.1,30.10,SE,135,0.0,0.0,80,0.00,,,0.00,WUHU216HW,2013-07-11 06:11:00,
2013-07-11 02:16:00,62.4,56.1,30.10,SE,135,0.0,0.0,80,0.00,,,0.00,WUHU216HW,2013-07-11 06:16:00,
2013-07-11 02:21:00,62.2,55.6,30.10,SE,135,0.0,0.0,79,0.00,,,0.00,WUHU216HW,2013-07-11 06:21:00,
2013-07-11 02:26:00,62.2,55.9,30.10,SE,135,0.0,0.0,80,0.00,,,0.00,WUHU216HW,2013-07-11 06:26:00,
2013-07-11 02:31:00,62.2,55.9,30.10,SE,135,0.0,0.0,80,0.00,,,0.00,WUHU216HW,2013-07-11 06:31:00,
2013-07-11 02:36:00,62.2,55.9,30.10,SE,135,0.0,0.0,80,0.00,,,0.00,WUHU216HW,2013-07-11 06:36:00,
2013-07-11 02:41:00,62.2,55.9,30.10,SE,135,0.0,0.0,80,0.00,,,0.00,WUHU216HW,2013-07-11 06:41:00,
2013-07-11 02:46:00,62.2,55.9,30.10,SE,135,0.0,0.0,80,0.00,,,0.00,WUHU216HW,2013-07-11 06:46:00,
2013-07-11 02:51:00,62.2,55.9,30.10,SE,135,0.0,0.0,80,0.00,,,0.00,WUHU216HW,2013-07-11 06:51:00,
2013-07-11 02:56:00,61.8,55.6,30.10,SE,135,0.0,0.0,80,0.00,,,0.00,WUHU216HW,2013-07-11 06:56:00,
2013-07-11 03:00:00,61.8,55.9,30.10,SE,135,0.0,0.0,81,0.00,,,0.00,WUHU216HW,2013-07-11 07:00:00,
2013-07-11 03:05:00,61.8,55.9,30.11,SE,135,0.0,0.0,81,0.00,,,0.00,WUHU216HW,2013-07-11 07:05:00,
2013-07-11 03:10:00,61.8,55.9,30.10,SE,135,0.0,0.0,81,0.00,,,0.00,WUHU216HW,2013-07-11 07:10:00,
2013-07-11 03:15:00,61.8,55.9,30.10,SE,135,0.0,0.0,81,0.00,,,0.00,WUHU216HW,2013-07-11 07:15:00,
2013-07-11 03:20:00,61.7,55.4,30.10,SE,135,0.0,0.0,80,0.00,,,0.00,WUHU216HW,2013-07-11 07:20:00,
2013-07-11 03:25:00,61.5,55.3,30.10,SE,135,0.0,0.0,80,0.00,,,0.00,WUHU216HW,2013-07-11 07:25:00,
2013-07-11 03:30:00,61.3,55.1,30.11,North,0,0.0,0.0,80,0.00,,,0.00,WUHU216HW,2013-07-11 07:30:00,
2013-07-11 03:35:00,61.3,55.4,30.11,SE,135,0.0,0.0,81,0.00,,,0.00,WUHU216HW,2013-07-11 07:35:00,
2013-07-11 03:40:00,61.3,55.4,30.11,SE,135,0.0,0.0,81,0.00,,,0.00,WUHU216HW,2013-07-11 07:40:00,
2013-07-11 03:45:00,61.5,55.6,30.11,SE,135,0.0,0.0,81,0.00,,,0.00,WUHU216HW,2013-07-11 07:45:00,
2013-07-11 03:50:00,61.5,55.6,30.11,SE,135,0.0,0.0,81,0.00,,,0.00,WUHU216HW,2013-07-11 07:50:00,
2013-07-11 03:55:00,61.5,55.6,30.11,SE,135,0.0,0.0,81,0.00,,,0.00,WUHU216HW,2013-07-11 07:55:00,
2013-07-11 04:00:00,61.5,55.6,30.11,SE,135,0.0,0.0,81,0.00,,,0.00,WUHU216HW,2013-07-11 08:00:00,
2013-07-11 04:05:00,61.1,55.3,30.12,SE,135,0.0,0.0,81,0.00,,,0.00,WUHU216HW,2013-07-11 08:05:00,
2013-07-11 04:10:00,60.9,55.1,30.11,SE,135,0.0,0.0,81,0.00,,,0.00,WUHU216HW,2013-07-11 08:10:00,
2013-07-11 04:15:00,60.9,55.1,30.11,SE,135,0.0,0.0,81,0.00,,,0.00,WUHU216HW,2013-07-11 08:15:00,
2013-07-11 04:20:00,61.1,55.3,30.11,SE,135,0.0,0.0,81,0.00,,,0.00,WUHU216HW,2013-07-11 08:20:00,
2013-07-11 04:25:00,61.1,55.3,30.11,SE,135,0.0,0.0,81,0.00,,,0.00,WUHU216HW,2013-07-11 08:25:00,
2013-07-11 04:30:00,61.1,55.3,30.11,SE,135,0.0,0.0,81,0.00,,,0.00,WUHU216HW,2013-07-11 08:30:00,
2013-07-11 04:35:00,61.3,55.8,30.11,SE,135,0.0,0.0,82,0.00,,,0.00,WUHU216HW,2013-07-11 08:35:00,
2013-07-11 04:40:00,61.3,55.8,30.11,SE,135,0.0,0.0,82,0.00,,,0.00,WUHU216HW,2013-07-11 08:40:00,
2013-07-11 04:45:00,61.5,55.9,30.11,SE,135,0.0,0.0,82,0.00,,,0.00,WUHU216HW,2013-07-11 08:45:00,
2013-07-11 04:50:00,61.5,55.9,30.11,SE,135,0.0,0.0,82,0.00,,,0.00,WUHU216HW,2013-07-11 08:50:00,
2013-07-11 04:55:00,61.5,55.9,30.11,SE,135,0.0,0.0,82,0.00,,,0.00,WUHU216HW,2013-07-11 08:55:00,
2013-07-11 05:00:00,61.5,55.9,30.12,SE,135,0.0,0.0,82,0.00,,,0.00,WUHU216HW,2013-07-11 09:00:00,
2013-07-11 05:05:00,61.8,56.3,30.12,SE,135,0.0,0.0,82,0.00,,,0.00,WUHU216HW,2013-07-11 09:05:00,
2013-07-11 05:10:00,61.8,56.3,30.12,SE,135,0.0,0.0,82,0.00,,,0.00,WUHU216HW,2013-07-11 09:10:00,
2013-07-11 05:15:00,61.8,56.3,30.12,SE,135,0.0,0.0,82,0.00,,,0.00,WUHU216HW,2013-07-11 09:15:00,
2013-07-11 05:20:00,62.0,56.4,30.12,SE,135,0.0,0.0,82,0.00,,,0.00,WUHU216HW,2013-07-11 09:20:00,
2013-07-11 05:25:00,62.0,56.4,30.12,SE,135,0.0,0.0,82,0.00,,,0.00,WUHU216HW,2013-07-11 09:25:00,
2013-07-11 05:30:00,62.2,56.6,30.12,SE,135,0.0,0.0,82,0.00,,,0.00,WUHU216HW,2013-07-11 09:30:00,
2013-07-11 05:35:00,62.2,56.6,30.11,SE,135,0.0,0.0,82,0.00,,,0.00,WUHU216HW,2013-07-11 09:35:00,
2013-07-11 05:40:00,61.8,56.3,30.12,SE,135,0.0,0.0,82,0.00,,,0.00,WUHU216HW,2013-07-11 09:40:00,
2013-07-11 05:45:00,61.8,56.3,30.12,SE,135,0.0,0.0,82,0.00,,,0.00,WUHU216HW,2013-07-11 09:45:00,
2013-07-11 05:50:00,61.7,56.1,30.12,SE,135,0.0,0.0,82,0.00,,,0.00,WUHU216HW,2013-07-11 09:50:00,
2013-07-11 05:55:00,61.5,55.9,30.13,SE,135,0.0,0.0,82,0.00,,,0.00,WUHU216HW,2013-07-11 09:55:00,
2013-07-11 06:00:00,61.5,56.3,30.12,SE,135,0.0,0.0,83,0.00,,,0.00,WUHU216HW,2013-07-11 10:00:00,
2013-07-11 06:05:00,61.5,56.3,30.12,SE,135,0.0,0.0,83,0.00,,,0.00,WUHU216HW,2013-07-11 10:05:00,
2013-07-11 06:10:00,61.5,56.3,30.12,SE,135,0.0,0.0,83,0.00,,,0.00,WUHU216HW,2013-07-11 10:10:00,
2013-07-11 06:15:00,61.5,56.3,30.12,SE,135,0.0,0.0,83,0.00,,,0.00,WUHU216HW,2013-07-11 10:15:00,
2013-07-11 06:20:00,61.5,56.3,30.12,SE,135,0.0,0.0,83,0.00,,,0.00,WUHU216HW,2013-07-11 10:20:00,
2013-07-11 06:25:00,61.5,56.3,30.13,SE,135,0.0,0.0,83,0.00,,,0.00,WUHU216HW,2013-07-11 10:25:00,
2013-07-11 06:30:00,61.5,56.3,30.13,SE,135,0.0,0.0,83,0.00,,,0.00,WUHU216HW,2013-07-11 10:30:00,
2013-07-11 06:35:00,61.5,56.3,30.13,SE,135,0.0,0.0,83,0.00,,,0.00,WUHU216HW,2013-07-11 10:35:00,
2013-07-11 06:40:00,61.3,56.1,30.13,SE,135,0.0,0.0,83,0.00,,,0.00,WUHU216HW,2013-07-11 10:40:00,
2013-07-11 06:45:00,61.5,56.3,30.13,SE,135,0.0,0.0,83,0.00,,,0.00,WUHU216HW,2013-07-11 10:45:00,
2013-07-11 06:50:00,61.3,56.1,30.13,SE,135,0.0,0.0,83,0.00,,,0.00,WUHU216HW,2013-07-11 10:50:00,
2013-07-11 06:55:00,61.1,56.3,30.13,SE,135,0.0,0.0,84,0.00,,,0.00,WUHU216HW,2013-07-11 10:55:00,
2013-07-11 07:00:00,61.1,56.3,30.13,SE,135,0.0,0.0,84,0.00,,,0.00,WUHU216HW,2013-07-11 11:00:00,
2013-07-11 07:05:00,60.9,56.1,30.14,SE,135,0.0,0.0,84,0.00,,,0.00,WUHU216HW,2013-07-11 11:05:00,
2013-07-11 07:10:00,60.9,56.1,30.13,SE,135,0.0,0.0,84,0.00,,,0.00,WUHU216HW,2013-07-11 11:10:00,
2013-07-11 07:15:00,61.1,56.3,30.14,SE,135,0.0,0.0,84,0.00,,,0.00,WUHU216HW,2013-07-11 11:15:00,
2013-07-11 07:20:00,61.3,56.4,30.14,SE,135,0.0,0.0,84,0.00,,,0.00,WUHU216HW,2013-07-11 11:20:00,
2013-07-11 07:25:00,61.3,56.8,30.14,SE,135,0.0,0.0,85,0.00,,,0.00,WUHU216HW,2013-07-11 11:25:00,
2013-07-11 07:30:00,61.5,56.9,30.14,SE,135,0.0,0.0,85,0.00,,,0.00,WUHU216HW,2013-07-11 11:30:00,
2013-07-11 07:35:00,61.7,57.1,30.14,SE,135,0.0,0.0,85,0.00,,,0.00,WUHU216HW,2013-07-11 11:35:00,
2013-07-11 07:40:00,61.8,57.3,30.14,SE,135,0.0,0.0,85,0.00,,,0.00,WUHU216HW,2013-07-11 11:40:00,
2013-07-11 07:45:00,61.8,57.3,30.14,SE,135,0.0,0.0,85,0.00,,,0.00,WUHU216HW,2013-07-11 11:45:00,
2013-07-11 07:50:00,62.2,57.6,30.15,SE,135,0.0,0.0,85,0.00,,,0.00,WUHU216HW,2013-07-11 11:50:00,
2013-07-11 07:55:00,62.4,57.8,30.15,SE,135,0.0,0.0,85,0.00,,,0.00,WUHU216HW,2013-07-11 11:55:00,
2013-07-11 08:00:00,62.6,58.0,30.15,SE,135,0.0,0.0,85,0.00,,,0.00,WUHU216HW,2013-07-11 12:00:00,
2013-07-11 08:05:00,63.1,58.8,30.15,SE,135,0.0,0.0,86,0.00,,,0.00,WUHU216HW,2013-07-11 12:05:00,
2013-07-11 08:10:00,63.3,59.0,30.15,SE,135,0.0,0.0,86,0.00,,,0.00,WUHU216HW,2013-07-11 12:10:00,
2013-07-11 08:15:00,63.6,59.4,30.15,SE,135,0.0,0.0,86,0.00,,,0.00,WUHU216HW,2013-07-11 12:15:00,
2013-07-11 08:20:00,64.0,59.7,30.16,SE,135,0.0,0.0,86,0.00,,,0.00,WUHU216HW,2013-07-11 12:20:00,
2013-07-11 08:25:00,64.4,60.1,30.16,SE,135,0.0,0.0,86,0.00,,,0.00,WUHU216HW,2013-07-11 12:25:00,
2013-07-11 08:30:00,64.5,59.9,30.16,SE,135,0.0,0.0,85,0.00,,,0.00,WUHU216HW,2013-07-11 12:30:00,
2013-07-11 08:35:00,65.1,60.4,30.16,SE,135,0.0,0.0,85,0.00,,,0.00,WUHU216HW,2013-07-11 12:35:00,
2013-07-11 08:40:00,65.4,60.8,30.16,SE,135,0.0,0.0,85,0.00,,,0.00,WUHU216HW,2013-07-11 12:40:00,
2013-07-11 08:45:00,65.8,61.1,30.17,SE,135,0.0,0.0,85,0.00,,,0.00,WUHU216HW,2013-07-11 12:45:00,
2013-07-11 08:50:00,66.2,61.5,30.17,SE,135,0.0,0.0,84,0.00,,,0.00,WUHU216HW,2013-07-11 12:50:00,
2013-07-11 08:55:00,66.7,61.7,30.17,SE,135,0.0,0.0,84,0.00,,,0.00,WUHU216HW,2013-07-11 12:55:00,
2013-07-11 09:00:00,67.2,62.2,30.17,SE,135,0.0,0.0,84,0.00,,,0.00,WUHU216HW,2013-07-11 13:00:00,
2013-07-11 09:05:00,67.8,62.1,30.17,SE,135,0.0,0.0,82,0.00,,,0.00,WUHU216HW,2013-07-11 13:05:00,
2013-07-11 09:10:00,68.1,62.5,30.17,ESE,113,0.0,0.0,82,0.00,,,0.00,WUHU216HW,2013-07-11 13:10:00,
2013-07-11 09:15:00,68.7,62.6,30.17,North,0,0.0,0.0,81,0.00,,,0.00,WUHU216HW,2013-07-11 13:15:00,
2013-07-11 09:20:00,69.2,62.8,30.17,NE,45,0.0,0.0,80,0.00,,,0.00,WUHU216HW,2013-07-11 13:20:00,
2013-07-11 09:25:00,69.8,62.9,30.17,NE,45,0.0,0.0,79,0.00,,,0.00,WUHU216HW,2013-07-11 13:25:00,
2013-07-11 09:30:00,70.3,63.1,30.17,East,90,0.0,0.0,78,0.00,,,0.00,WUHU216HW,2013-07-11 13:30:00,
2013-07-11 09:35:00,71.2,63.2,30.17,ESE,113,0.8,0.8,76,0.00,,,0.00,WUHU216HW,2013-07-11 13:35:00,
2013-07-11 09:40:00,71.7,63.4,30.17,ESE,113,0.0,0.8,75,0.00,,,0.00,WUHU216HW,2013-07-11 13:40:00,
2013-07-11 09:45:00,72.3,63.5,30.17,ENE,68,0.0,0.8,74,0.00,,,0.00,WUHU216HW,2013-07-11 13:45:00,
2013-07-11 09:50:00,73.2,63.3,30.17,NE,45,0.0,2.2,71,0.00,,,0.00,WUHU216HW,2013-07-11 13:50:00,
2013-07-11 09:55:00,73.7,63.0,30.17,NNE,23,0.0,2.2,69,0.00,,,0.00,WUHU216HW,2013-07-11 13:55:00,
2013-07-11 10:00:00,74.6,63.3,30.17,NNE,23,0.0,0.8,68,0.00,,,0.00,WUHU216HW,2013-07-11 14:00:00,
2013-07-11 10:05:00,75.0,63.2,30.18,ENE,68,0.8,0.8,67,0.00,,,0.00,WUHU216HW,2013-07-11 14:05:00,
2013-07-11 10:10:00,75.7,63.5,30.18,North,0,4.6,4.6,66,0.00,,,0.00,WUHU216HW,2013-07-11 14:10:00,
2013-07-11 10:15:00,76.1,63.0,30.18,ENE,68,0.0,4.6,64,0.00,,,0.00,WUHU216HW,2013-07-11 14:15:00,
2013-07-11 10:20:00,76.4,62.9,30.18,NE,45,0.0,4.6,63,0.00,,,0.00,WUHU216HW,2013-07-11 14:20:00,
2013-07-11 10:25:00,76.8,62.7,30.18,NE,45,0.0,1.5,62,0.00,,,0.00,WUHU216HW,2013-07-11 14:25:00,
2013-07-11 10:30:00,77.1,62.6,30.18,NE,45,0.0,0.0,61,0.00,,,0.00,WUHU216HW,2013-07-11 14:30:00,
2013-07-11 10:35:00,77.9,62.4,30.18,NNW,338,2.0,4.4,59,0.00,,,0.00,WUHU216HW,2013-07-11 14:35:00,
2013-07-11 10:40:00,78.4,61.9,30.18,NNE,23,0.0,4.4,57,0.00,,,0.00,WUHU216HW,2013-07-11 14:40:00,
2013-07-11 10:46:00,79.1,62.6,30.18,NNW,338,0.0,2.2,57,0.00,,,0.00,WUHU216HW,2013-07-11 14:46:00,
2013-07-11 10:51:00,79.8,63.2,30.18,North,0,0.0,0.0,57,0.00,,,0.00,WUHU216HW,2013-07-11 14:51:00,
2013-07-11 10:56:00,80.6,62.8,30.18,NNE,23,0.0,0.0,55,0.00,,,0.00,WUHU216HW,2013-07-11 14:56:00,
2013-07-11 11:01:00,81.1,62.3,30.18,NE,45,1.1,1.1,53,0.00,,,0.00,WUHU216HW,2013-07-11 15:01:00,
2013-07-11 11:06:00,81.3,61.9,30.18,North,0,0.0,1.1,52,0.00,,,0.00,WUHU216HW,2013-07-11 15:06:00,
2013-07-11 11:12:00,82.0,62.6,30.18,NW,315,0.0,1.1,52,0.00,,,0.00,WUHU216HW,2013-07-11 15:12:00,
2013-07-11 11:17:00,82.4,62.4,30.18,NNW,338,0.0,0.8,51,0.00,,,0.00,WUHU216HW,2013-07-11 15:17:00,
2013-07-11 11:22:00,82.7,62.7,30.18,NNW,338,2.0,2.0,51,0.00,,,0.00,WUHU216HW,2013-07-11 15:22:00,
2013-07-11 11:27:00,83.1,61.9,30.18,West,270,0.0,2.0,49,0.00,,,0.00,WUHU216HW,2013-07-11 15:27:00,
2013-07-11 11:32:00,83.1,61.3,30.19,North,0,0.0,0.6,48,0.00,,,0.00,WUHU216HW,2013-07-11 15:32:00,
2013-07-11 11:37:00,83.1,61.3,30.19,NNW,338,0.0,0.6,48,0.00,,,0.00,WUHU216HW,2013-07-11 15:37:00,
2013-07-11 11:42:00,83.4,61.0,30.19,West,270,0.0,1.7,47,0.00,,,0.00,WUHU216HW,2013-07-11 15:42:00,
2013-07-11 11:47:00,84.0,60.9,30.19,North,0,2.2,2.2,46,0.00,,,0.00,WUHU216HW,2013-07-11 15:47:00,
2013-07-11 11:52:00,84.3,61.3,30.19,NE,45,0.8,2.2,46,0.00,,,0.00,WUHU216HW,2013-07-11 15:52:00,
2013-07-11 11:57:00,84.7,61.6,30.19,North,0,0.0,2.2,46,0.00,,,0.00,WUHU216HW,2013-07-11 15:57:00,
2013-07-11 12:02:00,85.2,61.5,30.18,NE,45,0.0,0.8,45,0.00,,,0.00,WUHU216HW,2013-07-11 16:02:00,
2013-07-11 12:07:00,85.8,61.9,30.20,NNE,23,0.0,0.0,45,0.00,,,0.00,WUHU216HW,2013-07-11 16:07:00,
2013-07-11 12:12:00,86.1,61.6,30.20,NNW,338,1.1,1.1,44,0.00,,,0.00,WUHU216HW,2013-07-11 16:12:00,
2013-07-11 12:17:00,86.1,61.0,30.20,NE,45,0.8,1.1,43,0.00,,,0.00,WUHU216HW,2013-07-11 16:17:00,
2013-07-11 12:23:00,86.3,61.2,30.20,North,0,1.1,5.3,43,0.00,,,0.00,WUHU216HW,2013-07-11 16:23:00,
2013-07-11 12:28:00,86.5,61.3,30.20,NE,45,0.0,5.3,43,0.00,,,0.00,WUHU216HW,2013-07-11 16:28:00,
2013-07-11 12:33:00,86.7,60.2,30.20,ENE,68,11.8,11.8,41,0.00,,,0.00,WUHU216HW,2013-07-11 16:33:00,
2013-07-11 12:38:00,86.5,60.7,30.20,North,0,0.0,11.8,42,0.00,,,0.00,WUHU216HW,2013-07-11 16:38:00,
2013-07-11 12:43:00,86.3,59.9,30.20,North,0,2.9,11.8,41,0.00,,,0.00,WUHU216HW,2013-07-11 16:43:00,
2013-07-11 12:48:00,86.5,60.7,30.20,North,0,1.5,2.9,42,0.00,,,0.00,WUHU216HW,2013-07-11 16:48:00,
2013-07-11 12:53:00,86.7,60.2,30.20,NNE,23,0.8,1.5,41,0.00,,,0.00,WUHU216HW,2013-07-11 16:53:00,
2013-07-11 12:58:00,86.5,60.7,30.21,NNE,23,2.4,3.8,42,0.00,,,0.00,WUHU216HW,2013-07-11 16:58:00,
2013-07-11 13:03:00,86.7,60.2,30.20,NNW,338,0.0,3.8,41,0.00,,,0.00,WUHU216HW,2013-07-11 17:03:00,
2013-07-11 13:08:00,86.7,60.2,30.20,West,270,3.8,3.8,41,0.00,,,0.00,WUHU216HW,2013-07-11 17:08:00,
2013-07-11 13:13:00,86.3,59.9,30.20,North,0,0.0,3.8,41,0.00,,,0.00,WUHU216HW,2013-07-11 17:13:00,
2013-07-11 13:18:00,86.5,60.1,30.21,NNE,23,0.0,1.7,41,0.00,,,0.00,WUHU216HW,2013-07-11 17:18:00,
2013-07-11 13:23:00,87.0,61.2,30.21,NNW,338,2.2,2.2,42,0.00,,,0.00,WUHU216HW,2013-07-11 17:23:00,
2013-07-11 13:28:00,87.4,60.9,30.21,NE,45,0.6,2.2,41,0.00,,,0.00,WUHU216HW,2013-07-11 17:28:00,
2013-07-11 13:33:00,87.4,61.5,30.20,WSW,248,2.0,2.2,42,0.00,,,0.00,WUHU216HW,2013-07-11 17:33:00,
2013-07-11 13:38:00,87.8,61.8,30.20,North,0,0.0,2.0,42,0.00,,,0.00,WUHU216HW,2013-07-11 17:38:00,
2013-07-11 13:44:00,88.1,62.1,30.20,NNE,23,0.0,0.0,42,0.00,,,0.00,WUHU216HW,2013-07-11 17:44:00,
2013-07-11 13:49:00,88.5,62.4,30.21,NW,315,0.0,0.8,42,0.00,,,0.00,WUHU216HW,2013-07-11 17:49:00,
2013-07-11 13:54:00,89.2,63.6,30.21,NNE,23,0.0,0.8,43,0.00,,,0.00,WUHU216HW,2013-07-11 17:54:00,
2013-07-11 13:59:00,89.2,63.0,30.20,North,0,1.3,1.3,42,0.00,,,0.00,WUHU216HW,2013-07-11 17:59:00,
2013-07-11 14:04:00,89.0,63.5,30.21,North,0,0.0,2.0,43,0.00,,,0.00,WUHU216HW,2013-07-11 18:04:00,
2013-07-11 14:09:00,88.8,63.3,30.20,North,0,0.0,4.0,43,0.00,,,0.00,WUHU216HW,2013-07-11 18:09:00,
2013-07-11 14:14:00,88.7,63.2,30.21,NNE,23,1.1,4.0,43,0.00,,,0.00,WUHU216HW,2013-07-11 18:14:00,
2013-07-11 14:19:00,88.7,63.2,30.20,NE,45,0.0,1.5,43,0.00,,,0.00,WUHU216HW,2013-07-11 18:19:00,
2013-07-11 14:24:00,88.3,62.9,30.20,NNE,23,0.0,4.4,43,0.00,,,0.00,WUHU216HW,2013-07-11 18:24:00,
2013-07-11 14:29:00,88.1,62.7,30.21,NNE,23,64.4,64.4,43,0.00,,,0.00,WUHU216HW,2013-07-11 18:29:00,
2013-07-11 14:34:00,88.1,62.7,30.21,North,0,0.6,64.4,43,0.00,,,0.00,WUHU216HW,2013-07-11 18:34:00,
2013-07-11 14:39:00,88.1,62.7,30.20,NNW,338,0.0,64.4,43,0.00,,,0.00,WUHU216HW,2013-07-11 18:39:00,
2013-07-11 14:44:00,88.5,62.4,30.20,North,0,1.3,2.0,42,0.00,,,0.00,WUHU216HW,2013-07-11 18:44:00,
2013-07-11 14:49:00,88.7,63.2,30.21,NE,45,0.8,4.4,43,0.00,,,0.00,WUHU216HW,2013-07-11 18:49:00,
2013-07-11 14:54:00,89.2,63.6,30.21,WNW,293,2.0,4.4,43,0.00,,,0.00,WUHU216HW,2013-07-11 18:54:00,
2013-07-11 14:59:00,89.2,63.0,30.21,NNE,23,0.8,2.0,42,0.00,,,0.00,WUHU216HW,2013-07-11 18:59:00,
2013-07-11 15:04:00,88.5,62.4,30.21,NNE,23,3.8,3.8,42,0.00,,,0.00,WUHU216HW,2013-07-11 19:04:00,
2013-07-11 15:09:00,88.1,62.1,30.21,NW,315,2.2,3.8,42,0.00,,,0.00,WUHU216HW,2013-07-11 19:09:00,
2013-07-11 15:14:00,88.3,62.3,30.21,NE,45,0.0,3.8,42,0.00,,,0.00,WUHU216HW,2013-07-11 19:14:00,
2013-07-11 15:19:00,88.1,62.1,30.21,West,270,4.9,4.9,42,0.00,,,0.00,WUHU216HW,2013-07-11 19:19:00,
2013-07-11 15:24:00,87.9,62.0,30.21,West,270,0.0,4.9,42,0.00,,,0.00,WUHU216HW,2013-07-11 19:24:00,
2013-07-11 15:29:00,88.1,62.1,30.21,NW,315,0.0,4.9,42,0.00,,,0.00,WUHU216HW,2013-07-11 19:29:00,
2013-07-11 15:34:00,87.8,61.2,30.21,NNE,23,0.0,1.5,41,0.00,,,0.00,WUHU216HW,2013-07-11 19:34:00,
2013-07-11 15:39:00,87.6,60.4,30.21,North,0,0.0,2.4,40,0.00,,,0.00,WUHU216HW,2013-07-11 19:39:00,
2013-07-11 15:44:00,87.4,60.2,30.21,North,0,0.0,2.4,40,0.00,,,0.00,WUHU216HW,2013-07-11 19:44:00,
2013-07-11 15:49:00,87.9,60.7,30.21,West,270,1.3,1.3,40,0.00,,,0.00,WUHU216HW,2013-07-11 19:49:00,
2013-07-11 15:54:00,87.8,60.6,30.21,NNE,23,0.0,1.7,39,0.00,,,0.00,WUHU216HW,2013-07-11 19:54:00,
2013-07-11 15:59:00,88.3,61.0,30.21,NNE,23,0.0,1.7,40,0.00,,,0.00,WUHU216HW,2013-07-11 19:59:00,
2013-07-11 16:04:00,89.2,61.7,30.21,NNW,338,0.0,0.0,40,0.00,,,0.00,WUHU216HW,2013-07-11 20:04:00,
2013-07-11 16:09:00,89.4,61.9,30.21,NNW,338,0.0,3.5,40,0.00,,,0.00,WUHU216HW,2013-07-11 20:09:00,
2013-07-11 16:14:00,89.2,62.4,30.21,NE,45,0.0,3.5,41,0.00,,,0.00,WUHU216HW,2013-07-11 20:14:00,
2013-07-11 16:19:00,89.4,61.9,30.21,WNW,293,0.0,2.9,40,0.00,,,0.00,WUHU216HW,2013-07-11 20:19:00,
2013-07-11 16:24:00,89.4,62.5,30.21,NNE,23,0.8,2.0,41,0.00,,,0.00,WUHU216HW,2013-07-11 20:24:00,
2013-07-11 16:29:00,88.7,61.9,30.21,NNW,338,0.0,1.1,41,0.00,,,0.00,WUHU216HW,2013-07-11 20:29:00,
2013-07-11 16:34:00,87.6,61.7,30.21,WNW,293,0.0,2.9,42,0.00,,,0.00,WUHU216HW,2013-07-11 20:34:00,
2013-07-11 16:40:00,87.0,61.8,30.21,West,270,3.5,3.5,43,0.00,,,0.00,WUHU216HW,2013-07-11 20:40:00,
2013-07-11 16:45:00,86.7,62.1,30.21,NNE,23,0.0,3.5,44,0.00,,,0.00,WUHU216HW,2013-07-11 20:45:00,
2013-07-11 16:50:00,86.9,62.3,30.20,NNW,338,1.5,3.5,44,0.00,,,0.00,WUHU216HW,2013-07-11 20:50:00,
2013-07-11 16:55:00,87.0,61.8,30.20,North,0,0.0,1.5,43,0.00,,,0.00,WUHU216HW,2013-07-11 20:55:00,
2013-07-11 17:00:00,87.0,61.8,30.20,NNW,338,0.0,1.5,43,0.00,,,0.00,WUHU216HW,2013-07-11 21:00:00,
2013-07-11 17:05:00,86.5,62.0,30.20,WSW,248,2.2,2.2,44,0.00,,,0.00,WUHU216HW,2013-07-11 21:05:00,
2013-07-11 17:10:00,86.1,62.3,30.20,SSW,203,0.0,2.2,45,0.00,,,0.00,WUHU216HW,2013-07-11 21:10:00,
2013-07-11 17:15:00,85.8,61.9,30.21,West,270,0.0,2.2,45,0.00,,,0.00,WUHU216HW,2013-07-11 21:15:00,
2013-07-11 17:20:00,86.1,62.3,30.20,North,0,0.0,1.7,45,0.00,,,0.00,WUHU216HW,2013-07-11 21:20:00,
2013-07-11 17:25:00,86.3,63.1,30.20,West,270,1.5,1.7,46,0.00,,,0.00,WUHU216HW,2013-07-11 21:25:00,
2013-07-11 17:30:00,85.8,62.6,30.20,West,270,0.0,1.5,46,0.00,,,0.00,WUHU216HW,2013-07-11 21:30:00,
2013-07-11 17:35:00,86.1,62.9,30.20,NNE,23,0.0,0.8,46,0.00,,,0.00,WUHU216HW,2013-07-11 21:35:00,
2013-07-11 17:40:00,86.5,62.6,30.20,North,0,0.8,1.5,45,0.00,,,0.00,WUHU216HW,2013-07-11 21:40:00,
2013-07-11 17:45:00,86.9,62.9,30.20,NNE,23,2.4,2.4,45,0.00,,,0.00,WUHU216HW,2013-07-11 21:45:00,
2013-07-11 17:50:00,87.0,63.1,30.20,NNE,23,0.0,2.4,45,0.00,,,0.00,WUHU216HW,2013-07-11 21:50:00,
2013-07-11 17:56:00,86.7,62.7,30.20,SW,225,0.0,5.1,45,0.00,,,0.00,WUHU216HW,2013-07-11 21:56:00,
2013-07-11 18:01:00,86.3,62.4,30.20,NE,45,0.0,5.1,45,0.00,,,0.00,WUHU216HW,2013-07-11 22:01:00,
2013-07-11 18:06:00,86.3,63.1,30.20,NNE,23,0.0,1.1,46,0.00,,,0.00,WUHU216HW,2013-07-11 22:06:00,
2013-07-11 18:11:00,86.5,63.2,30.20,WSW,248,0.0,0.0,46,0.00,,,0.00,WUHU216HW,2013-07-11 22:11:00,
2013-07-11 18:16:00,86.7,62.7,30.20,NNW,338,0.0,0.0,45,0.00,,,0.00,WUHU216HW,2013-07-11 22:16:00,
2013-07-11 18:21:00,86.5,62.6,30.20,NNW,338,0.0,0.0,45,0.00,,,0.00,WUHU216HW,2013-07-11 22:21:00,
2013-07-11 18:26:00,86.5,62.6,30.19,NNW,338,0.0,1.7,45,0.00,,,0.00,WUHU216HW,2013-07-11 22:26:00,
2013-07-11 18:31:00,86.0,62.1,30.19,North,0,2.4,2.4,45,0.00,,,0.00,WUHU216HW,2013-07-11 22:31:00,
2013-07-11 18:36:00,85.8,61.9,30.19,North,0,3.8,3.8,45,0.00,,,0.00,WUHU216HW,2013-07-11 22:36:00,
2013-07-11 18:41:00,85.8,61.9,30.19,NNW,338,0.0,3.8,45,0.00,,,0.00,WUHU216HW,2013-07-11 22:41:00,
2013-07-11 18:46:00,85.8,62.6,30.19,North,0,0.0,0.0,46,0.00,,,0.00,WUHU216HW,2013-07-11 22:46:00,
2013-07-11 18:51:00,85.6,61.8,30.19,WSW,248,0.0,0.6,45,0.00,,,0.00,WUHU216HW,2013-07-11 22:51:00,
2013-07-11 18:56:00,84.9,61.1,30.19,North,0,0.0,1.1,45,0.00,,,0.00,WUHU216HW,2013-07-11 22:56:00,
2013-07-11 19:01:00,84.9,61.1,30.19,NE,45,0.8,1.1,45,0.00,,,0.00,WUHU216HW,2013-07-11 23:01:00,
2013-07-11 19:06:00,84.5,60.8,30.19,North,0,8.5,8.5,45,0.00,,,0.00,WUHU216HW,2013-07-11 23:06:00,
2013-07-11 19:11:00,84.0,60.3,30.19,NE,45,0.0,8.5,45,0.00,,,0.00,WUHU216HW,2013-07-11 23:11:00,
2013-07-11 19:16:00,83.8,60.1,30.19,North,0,3.5,8.5,45,0.00,,,0.00,WUHU216HW,2013-07-11 23:16:00,
2013-07-11 19:21:00,83.1,59.5,30.18,North,0,5.1,5.1,45,0.00,,,0.00,WUHU216HW,2013-07-11 23:21:00,
2013-07-11 19:26:00,82.7,59.5,30.19,NNE,23,0.0,5.1,45,0.00,,,0.00,WUHU216HW,2013-07-11 23:26:00,
2013-07-11 19:31:00,82.5,58.9,30.18,NNE,23,0.0,5.1,45,0.00,,,0.00,WUHU216HW,2013-07-11 23:31:00,
2013-07-11 19:36:00,82.2,58.6,30.18,North,0,0.0,0.0,45,0.00,,,0.00,WUHU216HW,2013-07-11 23:36:00,
2013-07-11 19:41:00,82.2,58.6,30.19,North,0,0.0,0.0,45,0.00,,,0.00,WUHU216HW,2013-07-11 23:41:00,
2013-07-11 19:46:00,82.2,59.2,30.19,NNW,338,0.0,0.0,46,0.00,,,0.00,WUHU216HW,2013-07-11 23:46:00,
2013-07-11 19:51:00,82.0,59.1,30.18,North,0,0.0,0.6,46,0.00,,,0.00,WUHU216HW,2013-07-11 23:51:00,
2013-07-11 19:56:00,82.0,59.1,30.18,NNE,23,0.0,0.6,46,0.00,,,0.00,WUHU216HW,2013-07-11 23:56:00,
2013-07-11 20:01:00,81.6,58.7,30.18,NNW,338,3.3,3.3,46,0.00,,,0.00,WUHU216HW,2013-07-12 00:01:00,
2013-07-11 20:07:00,81.1,58.9,30.18,North,0,0.0,3.3,47,0.00,,,0.00,WUHU216HW,2013-07-12 00:07:00,
2013-07-11 20:12:00,80.9,58.7,30.18,NNE,23,0.0,0.8,47,0.00,,,0.00,WUHU216HW,2013-07-12 00:12:00,
2013-07-11 20:17:00,80.7,59.1,30.18,North,0,0.0,0.8,48,0.00,,,0.00,WUHU216HW,2013-07-12 00:17:00,
2013-07-11 20:22:00,80.2,59.3,30.18,North,0,0.0,2.0,49,0.00,,,0.00,WUHU216HW,2013-07-12 00:22:00,
2013-07-11 20:27:00,79.7,58.8,30.18,NNW,338,0.0,2.0,49,0.00,,,0.00,WUHU216HW,2013-07-12 00:27:00,
2013-07-11 20:32:00,79.1,58.9,30.18,NNE,23,0.0,0.0,50,0.00,,,0.00,WUHU216HW,2013-07-12 00:32:00,
2013-07-11 20:37:00,78.4,58.8,30.18,NNE,23,0.0,0.8,51,0.00,,,0.00,WUHU216HW,2013-07-12 00:37:00,
2013-07-11 20:42:00,78.0,58.4,30.18,NE,45,0.0,0.8,51,0.00,,,0.00,WUHU216HW,2013-07-12 00:42:00,
2013-07-11 20:47:00,77.7,58.6,30.18,NW,315,0.0,0.0,52,0.00,,,0.00,WUHU216HW,2013-07-12 00:47:00,
2013-07-11 20:52:00,77.0,58.0,30.18,NE,45,0.0,0.0,52,0.00,,,0.00,WUHU216HW,2013-07-12 00:52:00,
2013-07-11 20:57:00,76.6,58.2,30.17,North,0,0.0,0.0,53,0.00,,,0.00,WUHU216HW,2013-07-12 00:57:00,
2013-07-11 21:02:00,76.2,57.8,30.17,North,0,0.0,0.0,53,0.00,,,0.00,WUHU216HW,2013-07-12 01:02:00,
2013-07-11 21:07:00,75.7,57.3,30.17,NNW,338,0.0,0.0,53,0.00,,,0.00,WUHU216HW,2013-07-12 01:07:00,
2013-07-11 21:12:00,75.3,57.0,30.17,North,0,0.0,0.0,53,0.00,,,0.00,WUHU216HW,2013-07-12 01:12:00,
2013-07-11 21:17:00,75.0,57.2,30.17,NNE,23,0.0,0.0,54,0.00,,,0.00,WUHU216HW,2013-07-12 01:17:00,
2013-07-11 21:22:00,74.4,56.6,30.17,NNE,23,0.0,0.6,54,0.00,,,0.00,WUHU216HW,2013-07-12 01:22:00,
2013-07-11 21:27:00,73.9,56.1,30.17,NE,45,0.0,0.6,54,0.00,,,0.00,WUHU216HW,2013-07-12 01:27:00,
2013-07-11 21:32:00,73.5,55.7,30.17,North,0,0.0,0.0,54,0.00,,,0.00,WUHU216HW,2013-07-12 01:32:00,
2013-07-11 21:37:00,73.2,55.4,30.17,North,0,0.8,0.8,54,0.00,,,0.00,WUHU216HW,2013-07-12 01:37:00,
2013-07-11 21:42:00,72.8,55.6,30.17,NE,45,0.0,2.6,55,0.00,,,0.00,WUHU216HW,2013-07-12 01:42:00,
2013-07-11 21:47:00,72.6,55.4,30.17,NE,45,0.0,2.6,55,0.00,,,0.00,WUHU216HW,2013-07-12 01:47:00,
2013-07-11 21:52:00,72.3,55.1,30.17,North,0,2.6,2.6,55,0.00,,,0.00,WUHU216HW,2013-07-12 01:52:00,
2013-07-11 21:57:00,71.9,55.3,30.17,NNE,23,0.0,2.6,56,0.00,,,0.00,WUHU216HW,2013-07-12 01:57:00,
2013-07-11 22:02:00,71.7,55.1,30.17,North,0,0.0,2.0,56,0.00,,,0.00,WUHU216HW,2013-07-12 02:02:00,
2013-07-11 22:07:00,71.4,55.3,30.17,North,0,0.0,2.0,57,0.00,,,0.00,WUHU216HW,2013-07-12 02:07:00,
2013-07-11 22:12:00,71.2,55.1,30.18,NNE,23,0.0,0.0,57,0.00,,,0.00,WUHU216HW,2013-07-12 02:12:00,
2013-07-11 22:17:00,70.8,55.3,30.18,North,0,0.0,0.0,58,0.00,,,0.00,WUHU216HW,2013-07-12 02:17:00,
2013-07-11 22:22:00,70.8,55.3,30.18,North,0,0.6,0.6,58,0.00,,,0.00,WUHU216HW,2013-07-12 02:22:00,
2013-07-11 22:27:00,70.5,55.0,30.17,North,0,0.0,0.6,58,0.00,,,0.00,WUHU216HW,2013-07-12 02:27:00,
2013-07-11 22:32:00,70.5,55.5,30.17,North,0,0.0,0.0,59,0.00,,,0.00,WUHU216HW,2013-07-12 02:32:00,
2013-07-11 22:37:00,70.3,55.3,30.18,North,0,0.0,0.0,59,0.00,,,0.00,WUHU216HW,2013-07-12 02:37:00,
2013-07-11 22:42:00,70.3,55.3,30.17,North,0,0.0,0.0,59,0.00,,,0.00,WUHU216HW,2013-07-12 02:42:00,
2013-07-11 22:48:00,70.3,55.3,30.18,North,0,0.0,0.0,59,0.00,,,0.00,WUHU216HW,2013-07-12 02:48:00,
2013-07-11 22:53:00,69.9,55.5,30.18,North,0,0.0,0.0,60,0.00,,,0.00,WUHU216HW,2013-07-12 02:53:00,
2013-07-11 22:58:00,69.6,55.2,30.18,North,0,0.0,0.0,60,0.00,,,0.00,WUHU216HW,2013-07-12 02:58:00,
2013-07-11 23:03:00,69.0,55.0,30.18,North,0,0.0,0.0,61,0.00,,,0.00,WUHU216HW,2013-07-12 03:03:00,
2013-07-11 23:08:00,68.5,54.5,30.18,North,0,0.0,0.0,61,0.00,,,0.00,WUHU216HW,2013-07-12 03:08:00,
2013-07-11 23:13:00,68.1,55.4,30.17,North,0,0.0,0.0,64,0.00,,,0.00,WUHU216HW,2013-07-12 03:13:00,
2013-07-11 23:18:00,67.8,54.7,30.17,North,0,0.0,0.0,63,0.00,,,0.00,WUHU216HW,2013-07-12 03:18:00,
2013-07-11 23:23:00,67.2,54.2,30.17,North,0,0.0,0.0,63,0.00,,,0.00,WUHU216HW,2013-07-12 03:23:00,
2013-07-11 23:28:00,66.9,54.7,30.17,North,0,0.0,0.0,65,0.00,,,0.00,WUHU216HW,2013-07-12 03:28:00,
2013-07-11 23:33:00,66.7,54.5,30.18,North,0,0.0,0.0,65,0.00,,,0.00,WUHU216HW,2013-07-12 03:33:00,
2013-07-11 23:38:00,66.3,54.2,30.18,North,0,0.0,0.0,65,0.00,,,0.00,WUHU216HW,2013-07-12 03:38:00,
2013-07-11 23:43:00,66.0,54.2,30.17,North,0,0.0,0.0,66,0.00,,,0.00,WUHU216HW,2013-07-12 03:43:00,
2013-07-11 23:48:00,65.6,54.3,30.17,North,0,0.0,0.0,67,0.00,,,0.00,WUHU216HW,2013-07-12 03:48:00,
2013-07-11 23:53:00,65.1,53.8,30.17,North,0,0.0,0.0,67,0.00,,,0.00,WUHU216HW,2013-07-12 03:53:00,
2013-07-11 23:58:00,64.9,53.6,30.17,North,0,0.0,0.0,67,0.00,,,0.00,WUHU216HW,2013-07-12 03:58:00,